createdAt,value
2022-10-05T00:00:27.572Z,23.02
2022-10-05T00:03:14.559Z,22.13
2022-10-05T00:05:42.187Z,18.13
2022-10-05T00:08:19.517Z,21.77
2022-10-05T00:10:47.017Z,17.80
2022-10-05T00:13:21.193Z,21.67
2022-10-05T00:15:49.220Z,20.25
2022-10-05T00:18:18.969Z,21.73
2022-10-05T00:20:47.403Z,19.17
2022-10-05T00:23:27.436Z,21.15
2022-10-05T00:25:54.726Z,19.77
2022-10-05T00:28:30.615Z,27.38
2022-10-05T00:30:59.248Z,20.00
2022-10-05T00:33:27.886Z,16.48
2022-10-05T00:35:55.528Z,19.55
2022-10-05T00:38:22.846Z,17.20
2022-10-05T00:41:05.547Z,19.20
2022-10-05T00:43:44.198Z,20.27
2022-10-05T00:46:27.404Z,19.10
2022-10-05T00:49:20.253Z,18.67
2022-10-05T00:52:11.472Z,14.70
2022-10-05T00:54:50.621Z,19.70
2022-10-05T00:57:33.890Z,23.55
2022-10-05T01:00:06.697Z,23.67
2022-10-05T01:02:48.046Z,23.13
2022-10-05T01:05:52.678Z,19.77
2022-10-05T01:08:41.769Z,20.00
2022-10-05T01:11:30.443Z,20.50
2022-10-05T01:14:31.443Z,20.95
2022-10-05T01:17:18.454Z,20.23
2022-10-05T01:20:03.760Z,19.73
2022-10-05T01:23:03.051Z,17.73
2022-10-05T01:25:54.322Z,21.58
2022-10-05T01:28:28.786Z,20.73
2022-10-05T01:31:15.682Z,18.92
2022-10-05T01:34:11.324Z,20.92
2022-10-05T01:36:49.093Z,23.25
2022-10-05T01:40:03.779Z,23.50
2022-10-05T01:42:58.495Z,24.60
2022-10-05T01:46:04.269Z,22.75
2022-10-05T01:48:34.336Z,22.17
2022-10-05T01:51:22.233Z,21.05
2022-10-05T01:53:59.951Z,20.77
2022-10-05T01:56:50.712Z,22.00
2022-10-05T01:59:56.812Z,24.23
2022-10-05T02:02:25.293Z,17.48
2022-10-05T02:05:14.065Z,18.90
2022-10-05T02:07:50.886Z,19.92
2022-10-05T02:10:30.672Z,17.70
2022-10-05T02:13:11.509Z,23.95
2022-10-05T02:16:03.045Z,23.55
2022-10-05T02:18:43.811Z,17.08
2022-10-05T02:21:11.090Z,21.52
2022-10-05T02:23:40.760Z,24.38
2022-10-05T02:26:11.016Z,21.23
2022-10-05T02:28:46.459Z,20.05
2022-10-05T02:31:18.081Z,19.95
2022-10-05T02:33:47.922Z,19.48
2022-10-05T02:36:29.555Z,20.35
2022-10-05T02:39:10.106Z,23.00
2022-10-05T02:41:40.719Z,22.92
2022-10-05T02:44:35.448Z,26.00
2022-10-05T02:47:14.902Z,23.50
2022-10-05T02:49:57.455Z,21.30
2022-10-05T02:52:49.844Z,17.30
2022-10-05T02:55:30.447Z,19.27
2022-10-05T02:58:09.963Z,23.27
2022-10-05T03:01:07.364Z,22.15
2022-10-05T03:03:41.733Z,22.33
2022-10-05T03:09:03.978Z,20.65
2022-10-05T03:12:04.520Z,22.70
2022-10-05T03:15:15.876Z,20.63
2022-10-05T03:18:01.649Z,27.40
2022-10-05T03:20:50.783Z,25.80
2022-10-05T03:23:44.649Z,27.02
2022-10-05T03:26:40.666Z,29.38
2022-10-05T03:29:32.428Z,25.45
2022-10-05T03:32:23.589Z,23.77
2022-10-05T03:35:03.468Z,38.67
2022-10-05T03:38:08.061Z,31.30
2022-10-05T03:40:43.026Z,55.03
2022-10-05T03:43:38.181Z,55.40
2022-10-05T03:46:11.494Z,50.38
2022-10-05T03:48:52.465Z,35.25
2022-10-05T03:51:39.843Z,34.38
2022-10-05T03:54:17.019Z,30.88
2022-10-05T03:56:51.731Z,32.47
2022-10-05T03:59:32.609Z,47.05
2022-10-05T04:02:05.349Z,42.13
2022-10-05T04:04:42.594Z,37.58
2022-10-05T04:07:23.728Z,30.60
2022-10-05T04:09:53.168Z,35.83
2022-10-05T04:12:37.198Z,29.85
2022-10-05T04:15:18.909Z,30.95
2022-10-05T04:17:51.816Z,28.90
2022-10-05T04:20:38.321Z,34.25
2022-10-05T04:23:16.698Z,31.38
2022-10-05T04:25:53.552Z,35.20
2022-10-05T04:28:32.419Z,32.28
2022-10-05T04:31:03.152Z,28.10
2022-10-05T04:33:32.152Z,29.25
2022-10-05T04:36:11.161Z,31.90
2022-10-05T04:39:14.207Z,34.25
2022-10-05T04:42:06.325Z,34.83
2022-10-05T04:44:43.221Z,34.47
2022-10-05T04:47:18.845Z,40.75
2022-10-05T04:50:07.088Z,35.25
2022-10-05T04:53:08.952Z,33.95
2022-10-05T04:55:38.394Z,38.28
2022-10-05T04:58:42.661Z,30.00
2022-10-05T05:01:45.985Z,32.00
2022-10-05T05:04:51.470Z,26.08
2022-10-05T05:07:25.249Z,27.30
2022-10-05T05:10:15.736Z,30.75
2022-10-05T05:13:13.871Z,30.77
2022-10-05T05:15:46.613Z,33.10
2022-10-05T05:18:26.095Z,28.85
2022-10-05T05:21:17.223Z,32.50
2022-10-05T05:23:53.709Z,25.83
2022-10-05T05:26:38.763Z,30.65
2022-10-05T05:29:45.791Z,25.98
2022-10-05T05:32:33.429Z,28.15
2022-10-05T05:35:22.589Z,26.40
2022-10-05T05:38:07.701Z,26.40
2022-10-05T05:40:56.866Z,26.48
2022-10-05T05:43:57.798Z,32.50
2022-10-05T05:47:02.179Z,28.52
2022-10-05T05:49:51.230Z,26.23
2022-10-05T05:52:38.291Z,30.55
2022-10-05T05:55:19.685Z,23.05
2022-10-05T05:57:56.474Z,20.85
2022-10-05T06:00:42.714Z,21.52
2022-10-05T06:03:20.980Z,22.73
2022-10-05T06:05:54.370Z,22.73
2022-10-05T06:08:28.933Z,21.05
2022-10-05T06:11:10.218Z,30.98
2022-10-05T06:13:42.208Z,22.20
2022-10-05T06:16:33.727Z,26.75
2022-10-05T06:19:13.226Z,25.67
2022-10-05T06:21:45.119Z,27.00
2022-10-05T06:24:26.770Z,27.17
2022-10-05T06:27:39.540Z,31.42
2022-10-05T06:30:13.551Z,22.75
2022-10-05T06:32:50.362Z,23.15
2022-10-05T06:35:36.624Z,22.13
2022-10-05T06:38:52.670Z,20.63
2022-10-05T06:41:50.291Z,20.92
2022-10-05T06:44:37.646Z,22.02
2022-10-05T06:48:02.827Z,26.85
2022-10-05T06:50:54.119Z,21.85
2022-10-05T06:53:49.680Z,20.48
2022-10-05T06:56:24.136Z,50.45
2022-10-05T06:59:05.004Z,38.53
2022-10-05T07:01:58.201Z,43.85
2022-10-05T07:04:39.319Z,40.63
2022-10-05T07:07:35.919Z,42.63
2022-10-05T07:10:55.151Z,31.80
2022-10-05T07:30:20.835Z,20.95
2022-10-05T07:34:00.258Z,19.33
2022-10-05T08:11:34.805Z,16.75
2022-10-05T08:43:32.920Z,16.50
2022-10-05T08:46:56.942Z,20.33
2022-10-05T08:50:22.058Z,16.63
2022-10-05T08:54:33.030Z,15.43
2022-10-05T08:57:29.048Z,18.33
2022-10-05T09:00:03.482Z,16.52
2022-10-05T09:03:16.186Z,20.90
2022-10-05T09:06:02.699Z,14.30
2022-10-05T09:08:58.751Z,15.35
2022-10-05T09:11:53.384Z,15.02
2022-10-05T09:15:27.118Z,20.00
2022-10-05T09:18:15.099Z,19.95
2022-10-05T09:20:59.111Z,19.45
2022-10-05T09:23:42.867Z,14.55
2022-10-05T09:26:10.329Z,11.80
2022-10-05T09:29:15.072Z,15.63
2022-10-05T09:31:57.273Z,14.73
2022-10-05T09:34:59.039Z,9.05
2022-10-05T09:37:59.677Z,18.50
2022-10-05T09:40:59.715Z,21.63
2022-10-05T09:43:54.339Z,13.48
2022-10-05T09:46:45.942Z,14.50
2022-10-05T09:49:40.349Z,24.38
2022-10-05T09:52:23.472Z,18.15
2022-10-05T09:55:27.834Z,15.60
2022-10-05T09:58:00.387Z,35.17
2022-10-05T10:00:50.077Z,17.00
2022-10-05T10:04:00.025Z,10.23
2022-10-05T10:06:46.549Z,11.45
2022-10-05T10:09:19.866Z,11.73
2022-10-05T10:12:02.076Z,11.43
2022-10-05T10:15:03.141Z,16.30
2022-10-05T10:18:03.604Z,14.52
2022-10-05T10:20:43.149Z,14.38
2022-10-05T10:23:23.456Z,10.45
2022-10-05T10:26:08.566Z,14.80
2022-10-05T10:28:44.346Z,17.55
2022-10-05T10:31:49.820Z,12.90
2022-10-05T10:37:02.244Z,13.10
2022-10-05T10:39:29.435Z,18.85
2022-10-05T10:41:59.597Z,30.05
2022-10-05T10:45:11.148Z,21.17
2022-10-05T10:47:47.131Z,73.30
2022-10-05T10:50:33.949Z,27.60
2022-10-05T10:53:19.818Z,30.45
2022-10-05T10:56:22.536Z,24.35
2022-10-05T10:59:20.192Z,18.27
2022-10-05T11:02:38.557Z,12.20
2022-10-05T11:05:38.721Z,10.73
2022-10-05T11:08:46.498Z,14.02
2022-10-05T11:11:36.251Z,13.18
2022-10-05T11:14:35.611Z,17.77
2022-10-05T11:17:25.744Z,10.20
2022-10-05T11:20:09.434Z,17.73
2022-10-05T11:22:55.487Z,14.95
2022-10-05T11:25:44.241Z,8.15
2022-10-05T11:28:29.414Z,11.50
2022-10-05T11:31:08.012Z,9.23
2022-10-05T11:33:38.229Z,9.02
2022-10-05T11:36:20.274Z,11.48
2022-10-05T11:39:10.191Z,10.13
2022-10-05T11:42:05.888Z,7.97
2022-10-05T11:44:54.890Z,16.10
2022-10-05T11:47:37.808Z,19.75
2022-10-05T11:50:32.526Z,11.23
2022-10-05T11:53:13.843Z,10.03
2022-10-05T11:56:23.123Z,14.80
2022-10-05T11:59:26.533Z,7.97
2022-10-05T12:02:43.888Z,8.98
2022-10-05T12:05:43.315Z,12.90
2022-10-05T12:08:37.060Z,11.00
2022-10-05T12:11:04.093Z,10.30
2022-10-05T12:13:31.243Z,11.63
2022-10-05T12:16:04.780Z,12.68
2022-10-05T12:18:31.701Z,11.63
2022-10-05T12:21:04.825Z,9.45
2022-10-05T12:24:14.390Z,13.90
2022-10-05T12:26:53.061Z,17.63
2022-10-05T12:29:26.833Z,18.73
2022-10-05T12:32:21.907Z,9.25
2022-10-05T12:35:07.804Z,12.33
2022-10-05T12:38:05.156Z,12.23
2022-10-05T12:40:51.662Z,10.05
2022-10-05T12:43:34.785Z,11.93
2022-10-05T12:46:20.510Z,11.45
2022-10-05T12:49:01.857Z,17.98
2022-10-05T12:51:55.886Z,25.92
2022-10-05T12:54:54.228Z,80.03
2022-10-05T12:58:05.507Z,81.25
2022-10-05T13:00:38.431Z,75.93
2022-10-05T13:03:17.905Z,108.88
2022-10-05T13:06:08.006Z,45.67
2022-10-05T13:08:59.455Z,14.40
2022-10-05T13:11:47.888Z,11.60
2022-10-05T13:14:47.285Z,15.60
2022-10-05T13:17:33.711Z,13.48
2022-10-05T13:20:12.312Z,13.95
2022-10-05T13:22:45.055Z,24.38
2022-10-05T13:25:32.665Z,14.50
2022-10-05T13:28:10.618Z,16.75
2022-10-05T13:30:41.499Z,18.63
2022-10-05T13:33:21.940Z,14.50
2022-10-05T13:36:02.061Z,12.02
2022-10-05T13:38:53.314Z,15.57
2022-10-05T13:41:35.946Z,11.55
2022-10-05T13:44:23.421Z,12.05
2022-10-05T13:47:05.726Z,11.88
2022-10-05T13:49:49.316Z,13.68
2022-10-05T13:52:42.197Z,11.52
2022-10-05T13:55:34.702Z,13.77
2022-10-05T13:58:13.891Z,11.50
2022-10-05T14:00:50.098Z,10.07
2022-10-05T14:03:37.474Z,10.88
2022-10-05T14:06:32.593Z,13.70
2022-10-05T14:09:00.016Z,11.90
2022-10-05T14:11:32.516Z,15.00
2022-10-05T14:14:26.521Z,15.88
2022-10-05T14:17:00.198Z,17.02
2022-10-05T14:19:32.441Z,15.77
2022-10-05T14:22:11.960Z,32.88
2022-10-05T14:25:10.526Z,49.47
2022-10-05T14:28:10.248Z,24.17
2022-10-05T14:30:37.609Z,16.38
2022-10-05T14:33:07.121Z,24.20
2022-10-05T14:35:50.628Z,24.45
2022-10-05T14:41:01.924Z,17.33
2022-10-05T14:43:29.852Z,25.20
2022-10-05T14:45:59.471Z,23.58
2022-10-05T14:48:29.498Z,36.85
2022-10-05T14:50:59.564Z,43.03
2022-10-05T14:53:40.124Z,34.83
2022-10-05T14:56:33.158Z,52.97
2022-10-05T14:59:04.268Z,47.47
2022-10-05T15:01:35.888Z,28.52
2022-10-05T15:04:31.915Z,32.00
2022-10-05T15:07:27.417Z,36.83
2022-10-05T15:10:06.412Z,25.45
2022-10-05T15:12:48.201Z,30.45
2022-10-05T15:15:39.684Z,27.77
2022-10-05T15:18:27.226Z,42.83
2022-10-05T15:21:12.060Z,62.55
2022-10-05T15:24:11.876Z,58.17
2022-10-05T15:27:01.131Z,62.53
2022-10-05T15:30:03.275Z,80.32
2022-10-05T15:32:45.804Z,75.45
2022-10-05T15:35:42.346Z,70.80
2022-10-05T15:38:21.308Z,72.10
2022-10-05T15:41:14.806Z,96.32
2022-10-05T15:43:50.677Z,93.95
2022-10-05T15:46:41.415Z,104.10
2022-10-05T15:49:57.265Z,125.10
2022-10-05T15:52:56.260Z,81.20
2022-10-05T15:55:38.385Z,71.45
2022-10-05T15:58:31.301Z,127.80
2022-10-05T16:01:11.528Z,91.75
2022-10-05T16:03:53.856Z,73.00
2022-10-05T16:07:05.499Z,57.55
2022-10-05T16:10:03.311Z,74.47
2022-10-05T16:12:53.079Z,54.97
2022-10-05T16:15:36.042Z,65.25
2022-10-05T16:18:47.916Z,59.63
2022-10-05T16:21:30.870Z,81.15
2022-10-05T16:24:21.232Z,70.38
2022-10-05T16:27:28.887Z,47.40
2022-10-05T16:30:04.995Z,31.20
2022-10-05T16:32:46.780Z,39.28
2022-10-05T16:35:59.509Z,63.63
2022-10-05T16:38:40.438Z,65.45
2022-10-05T16:41:27.430Z,69.05
2022-10-05T16:44:15.535Z,66.68
2022-10-05T16:47:11.765Z,73.50
2022-10-05T16:50:08.115Z,70.82
2022-10-05T16:52:40.569Z,74.78
2022-10-05T16:55:20.042Z,76.22
2022-10-05T16:57:55.695Z,92.47
2022-10-05T17:00:56.031Z,67.40
2022-10-05T17:03:57.145Z,52.92
2022-10-05T17:06:30.123Z,61.05
2022-10-05T17:09:25.486Z,98.35
2022-10-05T17:12:20.285Z,66.03
2022-10-05T17:14:53.145Z,55.97
2022-10-05T17:17:49.153Z,48.63
2022-10-05T17:20:40.186Z,39.85
2022-10-05T17:23:29.356Z,46.38
2022-10-05T17:26:22.906Z,48.63
2022-10-05T17:29:08.918Z,54.78
2022-10-05T17:31:59.902Z,71.00
2022-10-05T17:34:34.837Z,50.80
2022-10-05T17:37:38.019Z,72.22
2022-10-05T17:40:35.024Z,54.13
2022-10-05T17:43:24.591Z,47.80
2022-10-05T17:45:57.985Z,36.97
2022-10-05T17:48:44.113Z,44.28
2022-10-05T17:51:48.499Z,48.45
2022-10-05T17:54:49.106Z,32.67
2022-10-05T17:57:21.432Z,31.77
2022-10-05T17:59:57.291Z,25.30
2022-10-05T18:02:36.802Z,40.10
2022-10-05T18:05:05.049Z,34.03
2022-10-05T18:07:36.646Z,51.40
2022-10-05T18:10:14.810Z,33.45
2022-10-05T18:13:18.093Z,32.80
2022-10-05T18:15:48.766Z,34.03
2022-10-05T18:18:44.835Z,27.65
2022-10-05T18:21:14.833Z,30.10
2022-10-05T18:24:02.286Z,31.05
2022-10-05T18:27:11.182Z,38.10
2022-10-05T18:30:04.944Z,33.85
2022-10-05T18:32:49.983Z,24.83
2022-10-05T18:38:17.589Z,19.95
2022-10-05T18:41:03.723Z,21.65
2022-10-05T18:43:35.965Z,29.70
2022-10-05T18:46:15.097Z,21.63
2022-10-05T18:49:03.864Z,24.90
2022-10-05T18:51:52.810Z,22.67
2022-10-05T18:54:57.276Z,20.42
2022-10-05T18:57:40.671Z,29.98
2022-10-05T19:00:15.299Z,29.63
2022-10-05T19:03:11.090Z,22.23
2022-10-05T19:05:50.128Z,25.23
2022-10-05T19:08:31.046Z,20.17
2022-10-05T19:11:17.987Z,22.77
2022-10-05T19:13:51.206Z,18.95
2022-10-05T19:16:38.601Z,15.95
2022-10-05T19:19:30.701Z,17.63
2022-10-05T19:22:31.256Z,23.05
2022-10-05T19:25:05.315Z,18.60
2022-10-05T19:27:55.509Z,23.73
2022-10-05T19:30:43.970Z,20.92
2022-10-05T19:33:36.045Z,22.50
2022-10-05T19:36:40.280Z,22.30
2022-10-05T19:39:12.857Z,20.50
2022-10-05T19:41:40.814Z,25.08
2022-10-05T19:44:35.350Z,20.90
2022-10-05T19:47:14.923Z,23.63
2022-10-05T19:49:55.348Z,20.63
2022-10-05T19:52:25.222Z,24.23
2022-10-05T19:55:20.050Z,29.42
2022-10-05T19:57:49.613Z,27.75
2022-10-05T20:00:31.416Z,24.63
2022-10-05T20:03:18.876Z,25.85
2022-10-05T20:05:46.330Z,28.42
2022-10-05T20:08:18.794Z,31.90
2022-10-05T20:11:13.487Z,23.50
2022-10-05T20:13:46.775Z,29.17
2022-10-05T20:16:57.557Z,23.27
2022-10-05T20:19:50.711Z,23.83
2022-10-05T20:22:39.580Z,24.00
2022-10-05T20:25:28.797Z,21.15
2022-10-05T20:27:57.439Z,24.52
2022-10-05T20:30:29.001Z,18.48
2022-10-05T20:33:01.604Z,23.05
2022-10-05T20:35:30.831Z,20.45
2022-10-05T20:38:00.268Z,17.80
2022-10-05T20:40:29.282Z,14.02
2022-10-05T20:42:57.762Z,17.33
2022-10-05T20:45:25.153Z,21.95
2022-10-05T20:47:52.473Z,23.90
2022-10-05T20:50:21.107Z,19.17
2022-10-05T20:52:48.340Z,22.25
2022-10-05T20:55:18.510Z,17.63
2022-10-05T20:57:46.209Z,21.38
2022-10-05T21:00:13.955Z,16.55
2022-10-05T21:02:40.971Z,21.23
2022-10-05T21:05:08.992Z,19.10
2022-10-05T21:07:36.023Z,24.23
2022-10-05T21:10:03.942Z,20.10
2022-10-05T21:12:34.015Z,17.85
2022-10-05T21:15:01.590Z,18.45
2022-10-05T21:17:28.599Z,23.42
2022-10-05T21:19:55.860Z,20.67
2022-10-05T21:22:22.866Z,20.45
2022-10-05T21:24:49.977Z,21.48
2022-10-05T21:27:17.327Z,18.73
2022-10-05T21:29:45.374Z,14.20
2022-10-05T21:32:12.406Z,17.40
2022-10-05T21:34:40.990Z,19.40
2022-10-05T21:37:09.000Z,15.20
2022-10-05T21:39:36.750Z,15.30
2022-10-05T21:42:04.462Z,17.75
2022-10-05T21:44:31.413Z,18.17
2022-10-05T21:46:58.529Z,17.67
2022-10-05T21:49:27.071Z,15.65
2022-10-05T21:51:54.352Z,21.42
2022-10-05T21:54:22.661Z,16.92
2022-10-05T21:56:52.577Z,15.77
2022-10-05T21:59:22.540Z,16.83
2022-10-05T22:01:49.622Z,20.00
2022-10-05T22:04:17.117Z,20.98
2022-10-05T22:06:44.262Z,15.43
2022-10-05T22:09:12.101Z,19.50
2022-10-05T22:11:39.450Z,20.98
2022-10-05T22:14:06.673Z,15.48
2022-10-05T22:16:38.165Z,18.52
2022-10-05T22:19:10.612Z,19.08
2022-10-05T22:21:41.550Z,19.48
2022-10-05T22:24:11.463Z,20.75
2022-10-05T22:26:40.192Z,18.05
2022-10-05T22:29:07.296Z,17.58
2022-10-05T22:31:34.665Z,16.90
2022-10-05T22:34:01.953Z,20.95
2022-10-05T22:36:29.215Z,14.52
2022-10-05T22:38:56.450Z,15.23
2022-10-05T22:41:23.655Z,17.13
2022-10-05T22:43:51.335Z,17.50
2022-10-05T22:46:18.739Z,15.88
2022-10-05T22:48:45.961Z,18.02
2022-10-05T22:51:12.951Z,17.00
2022-10-05T22:53:40.337Z,19.90
2022-10-05T22:56:13.181Z,15.07
2022-10-05T22:58:41.557Z,16.25
2022-10-05T23:01:12.184Z,16.35
2022-10-05T23:03:39.276Z,18.17
2022-10-05T23:06:12.233Z,16.27
2022-10-05T23:08:40.934Z,16.58
2022-10-05T23:11:21.297Z,17.65
2022-10-05T23:13:48.608Z,18.50
2022-10-05T23:16:18.559Z,17.00
2022-10-05T23:18:49.063Z,19.33
2022-10-05T23:21:17.151Z,17.55
2022-10-05T23:23:47.444Z,14.73
2022-10-05T23:26:16.023Z,14.48
2022-10-05T23:28:46.627Z,15.73
2022-10-05T23:31:19.583Z,21.90
2022-10-05T23:33:47.066Z,17.70
2022-10-05T23:36:19.351Z,16.27
2022-10-05T23:38:46.866Z,15.85
2022-10-05T23:41:16.011Z,20.40
2022-10-05T23:43:43.723Z,17.73
2022-10-05T23:46:11.777Z,15.80
2022-10-05T23:48:39.383Z,15.82
2022-10-05T23:51:07.919Z,16.13
2022-10-05T23:53:35.247Z,23.55
2022-10-05T23:56:02.513Z,19.63
2022-10-05T23:58:30.038Z,19.00
